KCEU

Oconee County Regional Airport

Clemson, South Carolina, USA
METAR KCEU 180654Z AUTO 06004KT 3SM BR OVC003 10/09 A3011 RMK AO2 SLP194 T01000094
Observed Flight Rules
Feb-18 @ 06:54 UTC (23 minutes ago) Instrument Flight Rules
Wind Visibility Clouds Conditions
60° at 4 knots 3 miles
  • Overcast at 300' AGL
  • Mist
Temperatures Readings
Current 10°C / 50°F
Dewpoint 9°C / 48°F
Humidity 94%
Altimeter 30.11" Hg
Pressure 1019.4 hPa
Elevation 268
METAR KCEU 180654Z AUTO 06004KT 3SM BR OVC003 10/09 A3011 RMK AO2 SLP194 T01000094
Observed Flight Rules
Feb-18 @ 06:54 UTC
(23 minutes ago)
LIFR
Wind Visibility
60° at 4 knots 3 miles
Clouds
  • Overcast at 300' AGL
Conditions
  • Mist
Temperature Dewpoint
10°C / 50°F 9°C / 48°F
Humidity Altimeter Pressure
94% 30.11" Hg 1019.4 hPa